Terminal Aerodrome Forecast
Issued by NWS Wakefield, VA

Current Version | Previous Version | Text Only | Print | Product List | Glossary On
Versions: 1 2 3 4 5 6 7 8 9 10 11 12 13 14 15 16 17 18 19 20
034
FTUS41 KAKQ 210419 AAC
TAFRIC
TAF AMD
KRIC 210419Z 2104/2124 00000KT 1/2SM -DZ FG OVC002
      TEMPO 2104/2108 1/4SM -DZ FG
     FM211500 VRB03KT P6SM OVC003
     FM211700 17004KT P6SM OVC006=

USA.gov is the U.S. government's official web portal to all federal, state and local government web resources and services.